createdAt,value
2018-03-21T00:00:22.757Z,4.38
2018-03-21T00:02:53.271Z,4.35
2018-03-21T00:05:24.568Z,4.31
2018-03-21T00:13:02.537Z,4.23
2018-03-21T00:15:30.080Z,4.21
2018-03-21T00:17:57.596Z,4.22
2018-03-21T00:20:27.597Z,4.22
2018-03-21T00:29:46.353Z,4.21
2018-03-21T00:32:13.884Z,4.20
2018-03-21T00:34:41.413Z,4.19
2018-03-21T00:37:12.854Z,4.18
2018-03-21T00:39:43.611Z,4.17
2018-03-21T00:47:28.184Z,4.15
2018-03-21T00:49:55.725Z,4.15
2018-03-21T00:52:23.307Z,4.16
2018-03-21T00:54:53.385Z,4.17
2018-03-21T00:57:29.401Z,4.16
2018-03-21T00:59:57.334Z,4.15
2018-03-21T01:02:25.166Z,4.14
2018-03-21T01:04:52.726Z,4.14
2018-03-21T01:07:20.373Z,4.12
2018-03-21T01:09:47.932Z,4.10
2018-03-21T01:12:20.489Z,4.08
2018-03-21T01:14:52.193Z,4.06
2018-03-21T01:17:23.912Z,4.04
2018-03-21T01:19:51.486Z,4.04
2018-03-21T01:22:19.031Z,4.04
2018-03-21T01:24:46.591Z,4.04
2018-03-21T01:27:14.128Z,4.04
2018-03-21T01:29:43.612Z,4.04
2018-03-21T01:32:16.634Z,4.03
2018-03-21T01:34:47.708Z,4.04
2018-03-21T01:37:15.273Z,4.05
2018-03-21T01:39:42.820Z,4.05
2018-03-21T01:42:10.353Z,4.04
2018-03-21T01:44:37.890Z,4.03
2018-03-21T01:47:05.632Z,4.02
2018-03-21T01:49:40.721Z,4.01
2018-03-21T01:52:12.340Z,3.99
2018-03-21T01:54:39.913Z,3.96
2018-03-21T01:57:07.474Z,3.95
2018-03-21T01:59:35.470Z,3.92
2018-03-21T02:02:03.096Z,3.89
2018-03-21T02:04:31.699Z,3.85
2018-03-21T02:07:01.372Z,3.84
2018-03-21T02:09:29.067Z,3.85
2018-03-21T02:11:56.602Z,3.84
2018-03-21T02:14:24.172Z,3.82
2018-03-21T02:16:51.748Z,3.82
2018-03-21T02:19:19.281Z,3.82
2018-03-21T02:21:49.342Z,3.81
2018-03-21T02:24:17.114Z,3.82
2018-03-21T02:26:48.364Z,3.81
2018-03-21T02:29:15.920Z,3.79
2018-03-21T02:31:43.662Z,3.79
2018-03-21T02:34:11.202Z,3.75
2018-03-21T02:36:38.773Z,3.73
2018-03-21T02:39:08.438Z,3.72
2018-03-21T02:41:37.519Z,3.66
2018-03-21T02:44:05.191Z,3.61
2018-03-21T02:46:32.729Z,3.58
2018-03-21T02:49:00.275Z,3.56
2018-03-21T02:51:27.855Z,3.54
2018-03-21T02:53:55.413Z,3.50
2018-03-21T02:56:27.689Z,3.46
2018-03-21T02:58:56.458Z,3.44
2018-03-21T03:01:27.647Z,3.44
2018-03-21T03:03:55.276Z,3.42
2018-03-21T03:06:22.784Z,3.38
2018-03-21T03:08:50.346Z,3.35
2018-03-21T03:11:18.127Z,3.35
2018-03-21T03:13:47.482Z,3.34
2018-03-21T03:16:20.446Z,3.34
2018-03-21T03:18:49.581Z,3.33
2018-03-21T03:21:17.141Z,3.32
2018-03-21T03:23:44.717Z,3.30
2018-03-21T03:26:12.293Z,3.29
2018-03-21T03:28:40.290Z,3.26
2018-03-21T03:31:13.508Z,3.22
2018-03-21T03:33:41.179Z,3.17
2018-03-21T03:36:11.548Z,3.11
2018-03-21T03:38:39.060Z,3.06
2018-03-21T03:41:06.591Z,3.03
2018-03-21T03:43:35.118Z,3.00
2018-03-21T03:46:07.692Z,2.99
2018-03-21T03:48:39.856Z,2.94
2018-03-21T03:51:12.017Z,2.91
2018-03-21T03:53:40.523Z,2.87
2018-03-21T03:56:08.068Z,2.84
2018-03-21T03:58:35.621Z,2.82
2018-03-21T04:01:03.174Z,2.80
2018-03-21T04:03:31.919Z,2.78
2018-03-21T04:06:04.645Z,2.75
2018-03-21T04:08:33.408Z,2.73
2018-03-21T04:11:01.130Z,2.70
2018-03-21T04:13:28.672Z,2.67
2018-03-21T04:15:56.249Z,2.65
2018-03-21T04:18:23.800Z,2.63
2018-03-21T04:20:53.122Z,2.61
2018-03-21T04:23:21.321Z,2.59
2018-03-21T04:25:51.861Z,2.57
2018-03-21T04:28:20.624Z,2.56
2018-03-21T04:30:48.189Z,2.54
2018-03-21T04:33:15.736Z,2.53
2018-03-21T04:35:43.464Z,2.53
2018-03-21T04:38:11.623Z,2.51
2018-03-21T04:40:40.076Z,2.49
2018-03-21T04:43:08.433Z,2.47
2018-03-21T04:45:37.397Z,2.45
2018-03-21T04:48:04.976Z,2.44
2018-03-21T04:50:32.557Z,2.39
2018-03-21T04:53:00.156Z,2.35
2018-03-21T04:55:29.205Z,2.32
2018-03-21T04:57:59.730Z,2.30
2018-03-21T05:00:28.486Z,2.28
2018-03-21T05:02:57.700Z,2.27
2018-03-21T05:05:28.073Z,2.26
2018-03-21T05:07:55.616Z,2.25
2018-03-21T05:10:23.168Z,2.24
2018-03-21T05:12:52.309Z,2.22
2018-03-21T05:15:24.289Z,2.21
2018-03-21T05:17:53.104Z,2.19
2018-03-21T05:20:21.240Z,2.17
2018-03-21T05:22:48.837Z,2.15
2018-03-21T05:25:16.415Z,2.12
2018-03-21T05:27:44.893Z,2.08
2018-03-21T05:30:13.737Z,2.05
2018-03-21T05:32:44.770Z,2.02
2018-03-21T05:35:16.438Z,1.99
2018-03-21T05:37:49.050Z,1.97
2018-03-21T05:40:16.628Z,1.96
2018-03-21T05:42:44.189Z,1.95
2018-03-21T05:45:11.725Z,1.93
2018-03-21T05:47:41.318Z,1.89
2018-03-21T05:50:13.587Z,1.88
2018-03-21T05:52:41.322Z,1.88
2018-03-21T05:55:09.513Z,1.87
2018-03-21T05:57:37.880Z,1.87
2018-03-21T06:00:05.398Z,1.86
2018-03-21T06:02:32.959Z,1.86
2018-03-21T06:05:03.532Z,1.86
2018-03-21T06:07:33.572Z,1.86
2018-03-21T06:10:01.619Z,1.87
2018-03-21T06:12:29.403Z,1.88
2018-03-21T06:14:56.962Z,1.90
2018-03-21T06:17:24.505Z,1.92
2018-03-21T06:19:52.088Z,1.95
2018-03-21T06:22:24.585Z,1.97
2018-03-21T06:24:56.627Z,2.01
2018-03-21T06:27:25.290Z,2.05
2018-03-21T06:29:55.552Z,2.08
2018-03-21T06:32:23.073Z,2.11
2018-03-21T06:34:50.629Z,2.13
2018-03-21T06:37:21.555Z,2.15
2018-03-21T06:39:56.921Z,2.19
2018-03-21T06:42:27.971Z,2.22
2018-03-21T06:45:00.530Z,2.23
2018-03-21T06:47:29.673Z,2.23
2018-03-21T06:49:57.246Z,2.25
2018-03-21T06:52:24.783Z,2.26
2018-03-21T06:54:52.353Z,2.27
2018-03-21T06:57:22.078Z,2.26
2018-03-21T07:02:24.249Z,2.24
2018-03-21T07:04:51.824Z,2.26
2018-03-21T07:07:19.368Z,2.29
2018-03-21T07:09:47.512Z,2.30
2018-03-21T07:12:15.834Z,2.32
2018-03-21T07:26:52.071Z,2.51
2018-03-21T07:41:24.227Z,2.67
2018-03-21T07:43:56.065Z,2.69
2018-03-21T07:46:29.431Z,2.73
2018-03-21T07:58:05.334Z,3.03
2018-03-21T08:00:32.913Z,3.11
2018-03-21T08:03:00.489Z,3.19
2018-03-21T08:14:37.941Z,3.38
2018-03-21T08:17:05.534Z,3.39
2018-03-21T08:19:33.053Z,3.40
2018-03-21T08:31:15.459Z,3.51
2018-03-21T08:33:42.970Z,3.55
2018-03-21T08:36:10.501Z,3.62
2018-03-21T08:38:38.261Z,3.68
2018-03-21T08:43:41.334Z,3.82
2018-03-21T08:49:11.786Z,4.08
2018-03-21T08:51:39.430Z,4.20
2018-03-21T08:54:07.048Z,4.34
2018-03-21T09:05:44.138Z,4.88
2018-03-21T09:08:11.842Z,4.97
2018-03-21T09:10:39.431Z,5.06
2018-03-21T09:22:19.800Z,5.25
2018-03-21T09:24:47.373Z,5.25
2018-03-21T09:27:14.913Z,5.24
2018-03-21T09:29:42.448Z,5.24
2018-03-21T09:32:12.649Z,5.25
2018-03-21T09:34:41.372Z,5.27
2018-03-21T09:37:08.969Z,5.30
2018-03-21T09:39:36.522Z,5.41
2018-03-21T09:42:04.048Z,5.60
2018-03-21T09:44:31.602Z,5.81
2018-03-21T09:46:59.173Z,5.98
2018-03-21T09:52:24.148Z,6.25
2018-03-21T09:57:43.405Z,6.50
2018-03-21T10:00:10.973Z,6.60
2018-03-21T10:02:38.504Z,6.68
2018-03-21T10:05:06.120Z,6.72
2018-03-21T10:10:28.700Z,6.81
2018-03-21T10:12:57.821Z,6.93
2018-03-21T10:15:25.375Z,7.03
2018-03-21T10:17:52.922Z,7.11
2018-03-21T10:20:20.489Z,7.19
2018-03-21T10:22:48.131Z,7.30
2018-03-21T10:25:20.629Z,7.35
2018-03-21T10:33:29.267Z,7.53
2018-03-21T10:35:56.794Z,7.52
2018-03-21T10:38:24.367Z,7.45
2018-03-21T10:49:23.053Z,7.46
2018-03-21T10:51:50.667Z,7.52
2018-03-21T10:54:18.207Z,7.59
2018-03-21T10:56:45.754Z,7.66
2018-03-21T11:07:42.898Z,8.12
2018-03-21T11:10:10.387Z,8.20
2018-03-21T11:12:37.974Z,8.29
2018-03-21T11:23:28.484Z,8.44
2018-03-21T11:25:56.547Z,8.50
2018-03-21T11:28:24.056Z,8.52
2018-03-21T11:30:51.700Z,8.57
2018-03-21T11:42:29.037Z,8.56
2018-03-21T11:44:56.637Z,8.59
2018-03-21T11:47:24.162Z,8.61
2018-03-21T11:58:40.404Z,8.76
2018-03-21T12:01:07.981Z,8.73
2018-03-21T12:03:35.539Z,8.72
2018-03-21T12:32:29.144Z,9.35
2018-03-21T12:34:56.711Z,9.37
2018-03-21T12:37:24.271Z,9.35
2018-03-21T12:39:51.857Z,9.33
2018-03-21T12:42:21.777Z,9.33
2018-03-21T12:50:43.686Z,9.83
2018-03-21T12:53:11.239Z,9.83
2018-03-21T12:55:38.820Z,9.82
2018-03-21T12:58:28.841Z,9.84
2018-03-21T13:06:27.184Z,10.08
2018-03-21T13:08:54.712Z,10.18
2018-03-21T13:11:22.996Z,10.19
2018-03-21T13:13:50.601Z,10.21
2018-03-21T13:16:21.397Z,10.37
2018-03-21T13:24:12.993Z,10.48
2018-03-21T13:26:40.589Z,10.52
2018-03-21T13:29:08.147Z,10.65
2018-03-21T13:31:35.789Z,10.77
2018-03-21T13:39:36.427Z,11.13
2018-03-21T13:42:04.742Z,11.22
2018-03-21T13:44:32.374Z,11.30
2018-03-21T13:46:59.935Z,11.29
2018-03-21T13:49:28.457Z,11.27
2018-03-21T13:51:57.317Z,11.32
2018-03-21T13:54:25.825Z,11.33
2018-03-21T13:56:53.454Z,11.30
2018-03-21T13:59:20.981Z,11.31
2018-03-21T14:01:48.531Z,11.38
2018-03-21T14:04:16.079Z,11.41
2018-03-21T14:06:44.948Z,11.37
2018-03-21T14:09:13.853Z,11.42
2018-03-21T14:11:41.530Z,11.54
2018-03-21T14:14:09.530Z,11.63
2018-03-21T14:16:37.060Z,11.74
2018-03-21T14:19:04.597Z,11.80
2018-03-21T14:21:32.141Z,11.87
2018-03-21T14:24:00.028Z,11.90
2018-03-21T14:26:34.294Z,11.91
2018-03-21T14:29:04.653Z,11.94
2018-03-21T14:31:36.710Z,12.05
2018-03-21T14:34:04.276Z,12.16
2018-03-21T14:36:31.795Z,12.14
2018-03-21T14:38:59.345Z,12.11
2018-03-21T14:44:21.601Z,12.04
2018-03-21T14:46:52.676Z,12.08
2018-03-21T14:49:21.324Z,12.08
2018-03-21T14:51:48.909Z,12.03
2018-03-21T14:54:16.463Z,11.94
2018-03-21T14:56:44.008Z,11.80
2018-03-21T14:59:15.775Z,11.73
2018-03-21T15:01:45.955Z,11.68
2018-03-21T15:04:13.637Z,11.67
2018-03-21T15:06:49.001Z,11.65
2018-03-21T15:09:16.521Z,11.63
2018-03-21T15:11:44.067Z,11.65
2018-03-21T15:14:11.596Z,11.66
2018-03-21T15:16:41.649Z,11.66
2018-03-21T15:19:12.045Z,11.68
2018-03-21T15:21:41.070Z,11.69
2018-03-21T15:24:09.453Z,11.63
2018-03-21T15:26:37.012Z,11.49
2018-03-21T15:29:04.551Z,11.42
2018-03-21T15:31:32.155Z,11.38
2018-03-21T15:34:01.680Z,11.35
2018-03-21T15:36:48.344Z,11.45
2018-03-21T15:39:17.827Z,11.43
2018-03-21T15:41:45.413Z,11.36
2018-03-21T15:44:12.948Z,11.30
2018-03-21T15:46:40.522Z,11.34
2018-03-21T15:49:08.107Z,11.31
2018-03-21T15:51:37.618Z,11.24
2018-03-21T15:54:07.809Z,11.24
2018-03-21T15:56:41.017Z,11.21
2018-03-21T15:59:08.566Z,11.29
2018-03-21T16:01:36.106Z,11.30
2018-03-21T16:04:03.633Z,11.24
2018-03-21T16:06:31.183Z,11.10
2018-03-21T16:11:37.338Z,10.87
2018-03-21T16:14:07.761Z,10.81
2018-03-21T16:16:35.418Z,10.72
2018-03-21T16:19:02.950Z,10.65
2018-03-21T16:21:30.468Z,10.51
2018-03-21T16:23:58.060Z,10.36
2018-03-21T16:26:25.976Z,10.32
2018-03-21T16:28:53.995Z,10.21
2018-03-21T16:31:32.007Z,10.22
2018-03-21T16:33:59.593Z,10.23
2018-03-21T16:36:27.138Z,10.15
2018-03-21T16:38:54.666Z,10.02
2018-03-21T16:41:22.227Z,9.89
2018-03-21T16:52:03.626Z,9.56
2018-03-21T16:54:31.128Z,9.48
2018-03-21T16:56:58.689Z,9.45
2018-03-21T17:08:35.083Z,9.28
2018-03-21T17:11:03.634Z,9.22
2018-03-21T17:13:31.158Z,9.12
2018-03-21T17:27:56.640Z,8.88
2018-03-21T17:30:24.210Z,8.86
2018-03-21T17:42:09.434Z,8.73
2018-03-21T17:44:37.066Z,8.71
2018-03-21T17:47:04.625Z,8.70
2018-03-21T17:49:32.213Z,8.68
2018-03-21T18:00:41.733Z,8.52
2018-03-21T18:03:09.293Z,8.50
2018-03-21T18:05:36.859Z,8.47
2018-03-21T18:17:13.193Z,8.37
2018-03-21T18:19:40.775Z,8.34
2018-03-21T18:22:08.303Z,8.32
2018-03-21T18:24:35.914Z,8.28
2018-03-21T18:27:04.171Z,8.26
2018-03-21T18:29:31.827Z,8.24
2018-03-21T18:31:59.701Z,8.23
2018-03-21T18:34:27.221Z,8.21
2018-03-21T18:36:54.760Z,8.20
2018-03-21T18:39:22.273Z,8.19
2018-03-21T18:41:50.701Z,8.18
2018-03-21T18:44:19.753Z,8.16
2018-03-21T18:46:47.345Z,8.15
2018-03-21T18:49:14.926Z,8.12
2018-03-21T18:51:42.470Z,8.12
2018-03-21T18:54:10.049Z,8.12
2018-03-21T18:56:37.561Z,8.11
2018-03-21T18:59:05.104Z,8.09
2018-03-21T19:01:32.629Z,8.07
2018-03-21T19:04:00.194Z,8.06
2018-03-21T19:06:27.855Z,8.05
2018-03-21T19:08:55.373Z,8.03
2018-03-21T19:11:22.934Z,8.02
2018-03-21T19:13:50.464Z,8.00
2018-03-21T19:16:17.985Z,7.99
2018-03-21T19:18:45.544Z,7.99
2018-03-21T19:21:13.122Z,7.96
2018-03-21T19:23:40.679Z,7.94
2018-03-21T19:26:08.181Z,7.92
2018-03-21T19:28:35.691Z,7.90
2018-03-21T19:31:03.204Z,7.89
2018-03-21T19:33:30.733Z,7.87
2018-03-21T19:35:58.330Z,7.86
2018-03-21T19:38:25.908Z,7.85
2018-03-21T19:40:53.440Z,7.83
2018-03-21T19:43:20.948Z,7.81
2018-03-21T19:45:48.444Z,7.80
2018-03-21T19:48:15.967Z,7.80
2018-03-21T19:50:43.493Z,7.80
2018-03-21T19:53:11.136Z,7.79
2018-03-21T19:55:38.692Z,7.79
2018-03-21T19:58:06.238Z,7.79
2018-03-21T20:00:33.771Z,7.78
2018-03-21T20:03:01.339Z,7.77
2018-03-21T20:05:28.838Z,7.78
2018-03-21T20:07:56.445Z,7.77
2018-03-21T20:10:24.009Z,7.77
2018-03-21T20:12:51.673Z,7.77
2018-03-21T20:15:19.292Z,7.77
2018-03-21T20:17:46.774Z,7.77
2018-03-21T20:20:14.318Z,7.75
2018-03-21T20:22:41.829Z,7.75
2018-03-21T20:25:09.469Z,7.73
2018-03-21T20:27:37.033Z,7.70
2018-03-21T20:30:04.593Z,7.68
2018-03-21T20:32:32.541Z,7.66
2018-03-21T20:35:00.093Z,7.61
2018-03-21T20:37:27.600Z,7.61
2018-03-21T20:39:55.108Z,7.58
2018-03-21T20:42:23.362Z,7.57
2018-03-21T20:44:50.897Z,7.53
2018-03-21T20:47:18.468Z,7.51
2018-03-21T20:49:46.040Z,7.48
2018-03-21T20:52:13.541Z,7.47
2018-03-21T20:54:41.077Z,7.45
2018-03-21T20:57:09.268Z,7.42
2018-03-21T20:59:36.827Z,7.39
2018-03-21T21:02:04.453Z,7.38
2018-03-21T21:04:32.092Z,7.35
2018-03-21T21:06:59.674Z,7.33
2018-03-21T21:09:27.204Z,7.33
2018-03-21T21:11:54.733Z,7.33
2018-03-21T21:14:22.269Z,7.32
2018-03-21T21:16:49.831Z,7.31
2018-03-21T21:19:17.354Z,7.30
2018-03-21T21:21:44.893Z,7.29
2018-03-21T21:24:12.408Z,7.28
2018-03-21T21:26:39.918Z,7.26
2018-03-21T21:29:07.440Z,7.24
2018-03-21T21:31:34.950Z,7.23
2018-03-21T21:34:02.553Z,7.21
2018-03-21T21:36:33.402Z,7.19
2018-03-21T21:39:01.021Z,7.19
2018-03-21T21:41:28.582Z,7.18
2018-03-21T21:43:56.125Z,7.18
2018-03-21T21:46:23.636Z,7.17
2018-03-21T21:48:51.157Z,7.15
2018-03-21T21:51:18.705Z,7.15
2018-03-21T21:53:46.241Z,7.14
2018-03-21T21:56:13.780Z,7.14
2018-03-21T21:58:41.329Z,7.13
2018-03-21T22:01:08.881Z,7.14
2018-03-21T22:03:36.381Z,7.12
2018-03-21T22:06:03.919Z,7.13
2018-03-21T22:08:31.485Z,7.12
2018-03-21T22:10:59.061Z,7.12
2018-03-21T22:13:26.879Z,7.12
2018-03-21T22:15:56.121Z,7.11
2018-03-21T22:18:23.641Z,7.10
2018-03-21T22:20:51.192Z,7.08
2018-03-21T22:23:18.728Z,7.06
2018-03-21T22:25:46.265Z,7.06
2018-03-21T22:28:13.806Z,7.06
2018-03-21T22:30:41.928Z,7.05
2018-03-21T22:33:10.001Z,7.04
2018-03-21T22:35:37.549Z,7.03
2018-03-21T22:38:05.116Z,7.03
2018-03-21T22:40:32.630Z,7.02
2018-03-21T22:43:00.245Z,7.02
2018-03-21T22:45:28.393Z,7.01
2018-03-21T22:47:57.551Z,7.00
2018-03-21T22:50:25.162Z,7.00
2018-03-21T22:52:52.673Z,6.98
2018-03-21T22:55:20.185Z,6.99
2018-03-21T22:57:47.705Z,6.99
2018-03-21T23:00:15.249Z,6.98
2018-03-21T23:02:42.812Z,6.97
2018-03-21T23:05:10.418Z,6.96
2018-03-21T23:07:37.995Z,6.96
2018-03-21T23:10:05.560Z,6.94
2018-03-21T23:12:33.076Z,6.93
2018-03-21T23:15:00.618Z,6.92
2018-03-21T23:17:28.204Z,6.92
2018-03-21T23:19:55.872Z,6.92
2018-03-21T23:22:24.165Z,6.91
2018-03-21T23:24:51.987Z,6.91
2018-03-21T23:27:19.510Z,6.92
2018-03-21T23:29:47.041Z,6.93
2018-03-21T23:32:14.577Z,6.95
2018-03-21T23:34:42.208Z,6.96
2018-03-21T23:37:09.842Z,6.97
2018-03-21T23:39:41.930Z,6.97
2018-03-21T23:42:09.785Z,6.98
2018-03-21T23:44:37.830Z,6.99
2018-03-21T23:47:05.362Z,7.00
2018-03-21T23:49:32.880Z,7.01
2018-03-21T23:52:00.406Z,7.03
2018-03-21T23:54:28.174Z,7.05
2018-03-21T23:56:55.792Z,7.07
2018-03-21T23:59:23.416Z,7.10
